createdAt,value
2019-03-28T00:00:49.427Z,22.10
2019-03-28T00:03:22.469Z,23.10
2019-03-28T00:05:55.209Z,18.30
2019-03-28T00:08:28.293Z,20.67
2019-03-28T00:11:01.394Z,24.63
2019-03-28T00:13:35.387Z,21.40
2019-03-28T00:16:08.015Z,31.67
2019-03-28T00:18:46.915Z,19.50
2019-03-28T00:21:19.548Z,22.60
2019-03-28T00:24:03.474Z,20.60
2019-03-28T00:26:37.156Z,24.87
2019-03-28T00:29:14.854Z,22.50
2019-03-28T00:31:47.966Z,21.73
2019-03-28T00:34:21.430Z,24.83
2019-03-28T00:36:57.184Z,26.07
2019-03-28T00:39:30.106Z,24.10
2019-03-28T00:42:02.701Z,17.10
2019-03-28T00:44:35.477Z,26.57
2019-03-28T00:47:08.022Z,25.47
2019-03-28T00:49:40.826Z,27.53
2019-03-28T00:52:13.421Z,19.77
2019-03-28T00:54:46.259Z,26.07
2019-03-28T00:57:19.253Z,26.93
2019-03-28T00:59:52.104Z,30.47
2019-03-28T01:02:24.764Z,24.70
2019-03-28T01:04:57.744Z,26.83
2019-03-28T01:07:30.334Z,24.00
2019-03-28T01:10:03.043Z,25.30
2019-03-28T01:12:37.687Z,22.97
2019-03-28T01:15:11.827Z,22.57
2019-03-28T01:17:44.400Z,22.80
2019-03-28T01:20:17.497Z,26.53
2019-03-28T01:22:50.167Z,28.33
2019-03-28T01:25:22.961Z,28.77
2019-03-28T01:27:57.151Z,25.00
2019-03-28T01:30:29.844Z,27.40
2019-03-28T01:33:02.408Z,30.47
2019-03-28T01:35:36.626Z,31.03
2019-03-28T01:38:09.231Z,29.67
2019-03-28T01:40:42.017Z,25.80
2019-03-28T01:43:16.766Z,34.23
2019-03-28T01:45:49.630Z,30.50
2019-03-28T01:48:22.234Z,33.67
2019-03-28T01:50:55.292Z,31.93
2019-03-28T01:53:27.899Z,31.03
2019-03-28T01:56:00.573Z,28.20
2019-03-28T01:58:33.141Z,33.27
2019-03-28T02:01:05.748Z,33.90
2019-03-28T02:03:38.348Z,31.50
2019-03-28T02:06:11.015Z,24.90
2019-03-28T02:08:43.610Z,27.80
2019-03-28T02:11:17.628Z,38.03
2019-03-28T02:13:50.287Z,38.47
2019-03-28T02:16:23.233Z,28.80
2019-03-28T02:18:55.821Z,31.50
2019-03-28T02:21:28.995Z,29.00
2019-03-28T02:24:01.572Z,35.60
2019-03-28T02:26:34.456Z,28.47
2019-03-28T02:29:07.310Z,26.47
2019-03-28T02:31:40.434Z,36.87
2019-03-28T02:34:13.060Z,37.43
2019-03-28T02:36:47.938Z,34.20
2019-03-28T02:39:20.533Z,33.13
2019-03-28T02:41:53.421Z,36.13
2019-03-28T02:44:26.049Z,29.80
2019-03-28T02:47:01.335Z,30.07
2019-03-28T02:49:34.341Z,34.33
2019-03-28T02:52:07.611Z,32.57
2019-03-28T02:54:40.170Z,29.60
2019-03-28T02:57:19.222Z,34.27
2019-03-28T02:59:51.831Z,37.37
2019-03-28T03:02:26.183Z,31.43
2019-03-28T03:04:59.813Z,34.97
2019-03-28T03:07:32.578Z,36.50
2019-03-28T03:10:05.541Z,29.50
2019-03-28T03:12:38.218Z,29.57
2019-03-28T03:15:16.338Z,30.60
2019-03-28T03:17:49.164Z,28.03
2019-03-28T03:20:21.719Z,31.40
2019-03-28T03:22:54.830Z,29.67
2019-03-28T03:25:27.694Z,24.93
2019-03-28T03:28:02.261Z,31.60
2019-03-28T03:30:34.867Z,25.37
2019-03-28T03:33:12.132Z,31.80
2019-03-28T03:35:44.831Z,32.70
2019-03-28T03:38:21.648Z,28.67
2019-03-28T03:40:55.772Z,28.07
2019-03-28T03:43:28.666Z,29.67
2019-03-28T03:46:01.796Z,29.07
2019-03-28T03:48:34.707Z,37.93
2019-03-28T03:51:07.363Z,40.87
2019-03-28T03:53:40.632Z,56.73
2019-03-28T03:56:13.224Z,54.63
2019-03-28T03:58:47.334Z,39.10
2019-03-28T04:01:19.913Z,33.90
2019-03-28T04:03:58.079Z,41.43
2019-03-28T04:06:30.728Z,35.50
2019-03-28T04:09:06.427Z,28.30
2019-03-28T04:11:39.284Z,29.17
2019-03-28T04:14:16.021Z,27.43
2019-03-28T04:16:48.642Z,31.70
2019-03-28T04:19:21.299Z,27.03
2019-03-28T04:21:53.930Z,28.03
2019-03-28T04:24:27.031Z,26.73
2019-03-28T04:26:59.660Z,30.33
2019-03-28T04:29:32.531Z,33.47
2019-03-28T04:32:05.139Z,37.80
2019-03-28T04:34:37.958Z,25.07
2019-03-28T04:37:10.732Z,30.50
2019-03-28T04:39:48.872Z,31.77
2019-03-28T04:42:21.472Z,29.40
2019-03-28T04:44:54.348Z,30.57
2019-03-28T04:47:30.004Z,27.23
2019-03-28T04:50:06.023Z,30.03
2019-03-28T04:52:38.716Z,30.67
2019-03-28T04:55:12.261Z,30.47
2019-03-28T04:57:44.917Z,26.93
2019-03-28T05:00:21.784Z,30.90
2019-03-28T05:02:54.412Z,33.63
2019-03-28T05:05:27.476Z,33.97
2019-03-28T05:08:00.111Z,29.53
2019-03-28T05:10:34.358Z,34.10
2019-03-28T05:13:10.460Z,36.93
2019-03-28T05:15:43.274Z,34.10
2019-03-28T05:18:17.390Z,35.27
2019-03-28T05:20:50.196Z,41.23
2019-03-28T05:23:23.057Z,30.73
2019-03-28T05:25:56.392Z,28.33
2019-03-28T05:28:29.020Z,30.67
2019-03-28T05:31:03.309Z,31.93
2019-03-28T05:33:35.992Z,31.53
2019-03-28T05:36:08.735Z,26.63
2019-03-28T05:38:41.413Z,28.30
2019-03-28T05:41:17.520Z,31.60
2019-03-28T05:43:50.553Z,28.77
2019-03-28T05:46:23.205Z,27.57
2019-03-28T05:48:55.896Z,35.40
2019-03-28T05:51:28.546Z,31.00
2019-03-28T05:54:01.201Z,29.07
2019-03-28T05:56:42.159Z,27.93
2019-03-28T05:59:14.742Z,28.03
2019-03-28T06:01:47.704Z,28.67
2019-03-28T06:04:20.545Z,30.50
2019-03-28T06:06:53.464Z,31.23
2019-03-28T06:09:26.106Z,30.07
2019-03-28T06:11:59.040Z,28.87
2019-03-28T06:14:31.639Z,30.40
2019-03-28T06:17:04.401Z,28.20
2019-03-28T06:19:40.049Z,30.20
2019-03-28T06:22:13.424Z,34.07
2019-03-28T06:24:46.437Z,30.77
2019-03-28T06:27:19.411Z,27.63
2019-03-28T06:29:52.544Z,31.17
2019-03-28T06:32:25.759Z,28.80
2019-03-28T06:35:00.305Z,27.20
2019-03-28T06:37:32.987Z,26.93
2019-03-28T06:40:07.682Z,26.33
2019-03-28T06:42:40.672Z,25.50
2019-03-28T06:45:13.672Z,28.77
2019-03-28T06:47:46.592Z,25.40
2019-03-28T06:50:19.261Z,30.47
2019-03-28T06:52:52.110Z,22.40
2019-03-28T06:55:25.583Z,26.83
2019-03-28T06:57:58.636Z,28.93
2019-03-28T07:00:31.255Z,26.90
2019-03-28T07:03:03.983Z,25.80
2019-03-28T07:05:36.604Z,27.43
2019-03-28T07:08:09.377Z,21.23
2019-03-28T07:10:42.239Z,29.17
2019-03-28T07:13:14.959Z,22.17
2019-03-28T07:15:47.570Z,21.30
2019-03-28T07:18:20.281Z,19.33
2019-03-28T07:20:52.913Z,22.57
2019-03-28T07:23:25.497Z,21.90
2019-03-28T07:25:59.443Z,20.50
2019-03-28T07:28:32.284Z,19.50
2019-03-28T07:31:04.984Z,19.27
2019-03-28T07:33:37.778Z,16.27
2019-03-28T07:36:10.533Z,16.07
2019-03-28T07:38:43.166Z,16.67
2019-03-28T07:41:16.574Z,16.63
2019-03-28T07:43:50.291Z,17.33
2019-03-28T07:46:22.929Z,18.53
2019-03-28T07:48:57.521Z,16.53
2019-03-28T07:51:30.124Z,14.87
2019-03-28T07:54:02.962Z,19.30
2019-03-28T07:56:35.538Z,17.70
2019-03-28T07:59:08.733Z,19.53
2019-03-28T08:01:42.607Z,15.70
2019-03-28T08:04:15.210Z,15.40
2019-03-28T08:06:50.079Z,13.60
2019-03-28T08:09:22.142Z,15.10
2019-03-28T08:11:54.757Z,14.47
2019-03-28T08:14:27.675Z,13.67
2019-03-28T08:17:00.612Z,15.03
2019-03-28T08:19:33.543Z,14.10
2019-03-28T08:22:06.143Z,13.33
2019-03-28T08:24:38.782Z,10.10
2019-03-28T08:27:11.406Z,13.07
2019-03-28T08:29:44.334Z,9.13
2019-03-28T08:32:20.445Z,9.80
2019-03-28T08:34:53.193Z,10.00
2019-03-28T08:37:26.168Z,7.83
2019-03-28T08:39:59.185Z,6.97
2019-03-28T08:42:31.834Z,8.53
2019-03-28T08:45:04.864Z,10.40
2019-03-28T08:47:37.405Z,10.17
2019-03-28T08:50:10.360Z,9.43
2019-03-28T08:52:43.025Z,9.17
2019-03-28T08:55:17.503Z,8.83
2019-03-28T08:57:50.080Z,9.60
2019-03-28T09:00:33.151Z,11.97
2019-03-28T09:02:57.631Z,14.53
2019-03-28T09:05:30.376Z,14.70
2019-03-28T09:08:03.012Z,12.17
2019-03-28T09:10:36.039Z,9.23
2019-03-28T09:13:08.676Z,10.20
2019-03-28T09:15:44.051Z,12.17
2019-03-28T09:18:16.618Z,10.33
2019-03-28T09:20:49.541Z,9.30
2019-03-28T09:23:22.111Z,12.73
2019-03-28T09:25:54.998Z,10.77
2019-03-28T09:28:27.611Z,10.23
2019-03-28T09:31:00.978Z,12.40
2019-03-28T09:33:34.209Z,10.10
2019-03-28T09:36:07.058Z,12.00
2019-03-28T09:38:39.622Z,12.13
2019-03-28T09:41:12.356Z,10.33
2019-03-28T09:43:55.183Z,12.27
2019-03-28T09:46:20.252Z,10.70
2019-03-28T09:48:52.852Z,10.63
2019-03-28T09:51:25.802Z,8.20
2019-03-28T09:53:58.450Z,8.63
2019-03-28T09:56:31.260Z,9.60
2019-03-28T09:59:03.901Z,8.80
2019-03-28T10:01:36.823Z,10.37
2019-03-28T10:04:09.559Z,10.43
2019-03-28T10:06:42.402Z,9.93
2019-03-28T10:09:15.162Z,8.27
2019-03-28T10:11:48.165Z,9.83
2019-03-28T10:14:20.777Z,9.30
2019-03-28T10:16:53.933Z,10.13
2019-03-28T10:19:26.540Z,10.20
2019-03-28T10:21:59.401Z,12.77
2019-03-28T10:24:32.773Z,8.80
2019-03-28T10:27:05.581Z,10.50
2019-03-28T10:29:38.376Z,10.20
2019-03-28T10:32:11.333Z,12.67
2019-03-28T10:34:43.916Z,11.70
2019-03-28T10:37:16.707Z,11.87
2019-03-28T10:39:49.285Z,8.20
2019-03-28T10:42:22.169Z,7.87
2019-03-28T10:44:54.866Z,8.77
2019-03-28T10:47:28.160Z,8.87
2019-03-28T10:50:03.748Z,6.90
2019-03-28T10:52:35.372Z,9.33
2019-03-28T10:55:08.395Z,10.60
2019-03-28T10:57:41.321Z,8.97
2019-03-28T11:00:23.914Z,10.00
2019-03-28T11:02:49.580Z,8.87
2019-03-28T11:05:22.585Z,9.77
2019-03-28T11:07:55.534Z,9.97
2019-03-28T11:10:30.583Z,7.03
2019-03-28T11:13:09.530Z,8.07
2019-03-28T11:15:41.114Z,7.33
2019-03-28T11:18:14.271Z,9.23
2019-03-28T11:20:47.275Z,8.20
2019-03-28T11:23:21.957Z,7.73
2019-03-28T11:25:57.373Z,8.80
2019-03-28T11:28:29.480Z,7.22
2019-03-28T11:31:02.127Z,8.73
2019-03-28T11:33:35.353Z,9.73
2019-03-28T11:36:07.965Z,9.13
2019-03-28T11:38:40.564Z,11.17
2019-03-28T11:41:13.172Z,9.07
2019-03-28T11:43:46.258Z,10.63
2019-03-28T11:46:18.872Z,7.90
2019-03-28T11:48:52.067Z,8.97
2019-03-28T11:51:26.735Z,7.50
2019-03-28T11:53:59.441Z,7.20
2019-03-28T11:56:32.147Z,8.43
2019-03-28T11:59:06.583Z,8.10
2019-03-28T12:01:39.473Z,7.77
2019-03-28T12:04:12.309Z,9.40
2019-03-28T12:06:45.000Z,9.67
2019-03-28T12:09:17.775Z,13.07
2019-03-28T12:11:52.941Z,8.47
2019-03-28T12:14:24.801Z,9.93
2019-03-28T12:16:57.485Z,7.37
2019-03-28T12:19:30.649Z,7.90
2019-03-28T12:22:03.237Z,11.90
2019-03-28T12:24:39.143Z,9.15
2019-03-28T12:27:11.805Z,11.08
2019-03-28T12:29:44.759Z,9.43
2019-03-28T12:32:17.361Z,8.43
2019-03-28T12:34:50.312Z,9.10
2019-03-28T12:37:25.517Z,6.57
2019-03-28T12:40:00.001Z,11.85
2019-03-28T12:42:31.807Z,12.70
2019-03-28T12:45:06.472Z,11.75
2019-03-28T12:47:42.839Z,13.72
2019-03-28T12:50:15.003Z,9.38
2019-03-28T12:52:48.946Z,9.68
2019-03-28T12:55:21.909Z,8.05
2019-03-28T12:57:54.616Z,8.48
2019-03-28T13:00:38.865Z,7.97
2019-03-28T13:03:11.537Z,8.05
2019-03-28T13:05:44.674Z,5.53
2019-03-28T13:08:17.783Z,6.17
2019-03-28T13:10:50.890Z,5.22
2019-03-28T13:13:26.165Z,5.10
2019-03-28T13:15:58.750Z,4.58
2019-03-28T13:18:36.014Z,4.40
2019-03-28T13:21:13.865Z,7.25
2019-03-28T13:23:43.366Z,4.60
2019-03-28T13:26:16.007Z,5.05
2019-03-28T13:28:49.924Z,5.17
2019-03-28T13:31:22.557Z,4.92
2019-03-28T13:33:55.167Z,4.53
2019-03-28T13:36:30.921Z,5.25
2019-03-28T13:39:04.025Z,5.42
2019-03-28T13:41:38.063Z,5.12
2019-03-28T13:44:12.216Z,4.85
2019-03-28T13:46:45.251Z,7.37
2019-03-28T13:49:17.809Z,4.28
2019-03-28T13:51:50.833Z,6.35
2019-03-28T13:54:23.518Z,4.80
2019-03-28T13:56:56.347Z,4.28
2019-03-28T13:59:29.038Z,4.25
2019-03-28T14:02:01.634Z,4.67
2019-03-28T14:04:34.309Z,4.40
2019-03-28T14:07:07.585Z,4.25
2019-03-28T14:09:42.711Z,3.62
2019-03-28T14:12:15.906Z,4.15
2019-03-28T14:14:48.485Z,4.00
2019-03-28T14:17:21.389Z,3.47
2019-03-28T14:19:54.007Z,4.80
2019-03-28T14:22:27.206Z,4.17
2019-03-28T14:24:59.787Z,3.90
2019-03-28T14:27:32.513Z,5.67
2019-03-28T14:30:09.350Z,6.85
2019-03-28T14:32:52.501Z,4.20
2019-03-28T14:35:14.777Z,3.80
2019-03-28T14:37:47.561Z,4.05
2019-03-28T14:40:22.869Z,4.28
2019-03-28T14:42:55.961Z,5.22
2019-03-28T14:45:28.661Z,4.22
2019-03-28T14:48:01.374Z,5.72
2019-03-28T14:50:40.190Z,4.40
2019-03-28T14:53:13.023Z,4.90
2019-03-28T14:55:46.101Z,4.78
2019-03-28T14:58:21.947Z,4.25
2019-03-28T15:00:55.645Z,6.78
2019-03-28T15:03:29.787Z,4.62
2019-03-28T15:06:02.410Z,8.28
2019-03-28T15:08:35.476Z,5.40
2019-03-28T15:11:08.195Z,4.72
2019-03-28T15:13:40.990Z,5.30
2019-03-28T15:16:13.603Z,4.22
2019-03-28T15:18:47.608Z,4.30
2019-03-28T15:21:20.248Z,4.20
2019-03-28T15:23:53.031Z,4.20
2019-03-28T15:26:25.669Z,4.20
2019-03-28T15:28:58.464Z,4.85
2019-03-28T15:31:31.013Z,5.12
2019-03-28T15:34:03.904Z,6.37
2019-03-28T15:36:36.548Z,6.92
2019-03-28T15:39:10.495Z,5.90
2019-03-28T15:41:44.987Z,6.10
2019-03-28T15:44:17.920Z,7.12
2019-03-28T15:46:51.517Z,5.78
2019-03-28T15:49:24.914Z,8.10
2019-03-28T15:51:57.677Z,6.58
2019-03-28T15:54:30.639Z,7.00
2019-03-28T15:57:03.280Z,5.35
2019-03-28T15:59:35.977Z,7.08
2019-03-28T16:02:09.196Z,6.35
2019-03-28T16:04:42.112Z,6.15
2019-03-28T16:07:14.743Z,12.78
2019-03-28T16:09:47.467Z,7.35
2019-03-28T16:12:20.035Z,7.42
2019-03-28T16:14:52.917Z,8.55
2019-03-28T16:17:25.678Z,8.83
2019-03-28T16:19:58.581Z,9.78
2019-03-28T16:22:31.308Z,8.98
2019-03-28T16:25:04.276Z,7.25
2019-03-28T16:27:36.901Z,7.87
2019-03-28T16:30:12.580Z,7.33
2019-03-28T16:32:45.183Z,6.05
2019-03-28T16:35:21.367Z,11.15
2019-03-28T16:37:54.514Z,8.75
2019-03-28T16:40:27.425Z,8.18
2019-03-28T16:43:00.117Z,8.53
2019-03-28T16:45:33.003Z,9.80
2019-03-28T16:48:07.708Z,9.10
2019-03-28T16:50:40.400Z,10.55
2019-03-28T16:53:13.038Z,8.83
2019-03-28T16:55:46.069Z,12.95
2019-03-28T16:58:19.808Z,12.67
2019-03-28T17:00:52.944Z,15.43
2019-03-28T17:03:25.610Z,18.23
2019-03-28T17:05:59.451Z,22.90
2019-03-28T17:08:34.420Z,25.07
2019-03-28T17:11:11.821Z,30.37
2019-03-28T17:13:46.121Z,27.60
2019-03-28T17:16:18.720Z,29.13
2019-03-28T17:18:52.808Z,30.43
2019-03-28T17:21:25.456Z,24.17
2019-03-28T17:23:58.045Z,25.00
2019-03-28T17:26:31.043Z,25.40
2019-03-28T17:29:03.757Z,27.20
2019-03-28T17:31:38.797Z,29.23
2019-03-28T17:34:11.453Z,25.57
2019-03-28T17:36:44.791Z,32.27
2019-03-28T17:39:18.592Z,27.33
2019-03-28T17:41:52.096Z,29.53
2019-03-28T17:44:25.012Z,29.67
2019-03-28T17:46:57.837Z,35.27
2019-03-28T17:49:30.635Z,27.47
2019-03-28T17:52:03.506Z,34.10
2019-03-28T17:54:36.214Z,33.83
2019-03-28T17:57:10.837Z,34.77
2019-03-28T17:59:45.312Z,36.77
2019-03-28T18:02:17.887Z,40.53
2019-03-28T18:04:50.545Z,35.87
2019-03-28T18:07:25.035Z,37.53
2019-03-28T18:09:57.636Z,41.33
2019-03-28T18:12:31.217Z,34.17
2019-03-28T18:15:03.990Z,32.17
2019-03-28T18:17:37.290Z,30.37
2019-03-28T18:20:11.040Z,33.17
2019-03-28T18:22:44.154Z,36.37
2019-03-28T18:25:16.880Z,30.80
2019-03-28T18:27:49.569Z,30.30
2019-03-28T18:30:23.189Z,34.30
2019-03-28T18:32:56.392Z,40.50
2019-03-28T18:35:29.072Z,46.57
2019-03-28T18:38:01.845Z,44.47
2019-03-28T18:40:34.401Z,47.27
2019-03-28T18:43:07.088Z,40.23
2019-03-28T18:45:39.750Z,38.63
2019-03-28T18:48:26.941Z,40.43
2019-03-28T18:50:46.881Z,41.43
2019-03-28T18:53:19.731Z,39.23
2019-03-28T18:55:52.634Z,38.57
2019-03-28T18:58:25.783Z,44.17
2019-03-28T19:00:58.557Z,41.30
2019-03-28T19:03:31.798Z,42.23
2019-03-28T19:06:04.923Z,45.73
2019-03-28T19:08:37.910Z,40.33
2019-03-28T19:11:11.452Z,45.13
2019-03-28T19:13:45.174Z,43.60
2019-03-28T19:16:21.612Z,47.13
2019-03-28T19:18:53.259Z,47.97
2019-03-28T19:21:25.990Z,47.03
2019-03-28T19:24:00.542Z,50.63
2019-03-28T19:26:33.162Z,48.13
2019-03-28T19:29:06.240Z,46.23
2019-03-28T19:31:39.021Z,43.27
2019-03-28T19:34:11.669Z,46.23
2019-03-28T19:36:45.112Z,45.63
2019-03-28T19:39:32.437Z,43.80
2019-03-28T19:42:05.171Z,47.43
2019-03-28T19:44:38.187Z,49.67
2019-03-28T19:47:12.902Z,46.83
2019-03-28T19:49:45.787Z,57.20
2019-03-28T19:52:18.409Z,54.33
2019-03-28T19:54:51.121Z,56.53
2019-03-28T19:57:23.838Z,57.57
2019-03-28T19:59:58.614Z,57.70
2019-03-28T20:02:31.037Z,52.57
2019-03-28T20:05:03.826Z,55.27
2019-03-28T20:07:36.588Z,49.47
2019-03-28T20:10:16.104Z,49.47
2019-03-28T20:12:45.182Z,57.30
2019-03-28T20:15:19.886Z,57.40
2019-03-28T20:17:52.644Z,59.67
2019-03-28T20:20:25.647Z,54.60
2019-03-28T20:22:58.250Z,52.53
2019-03-28T20:25:31.209Z,54.10
2019-03-28T20:28:04.016Z,63.17
2019-03-28T20:30:36.967Z,63.90
2019-03-28T20:33:09.731Z,117.57
2019-03-28T20:35:42.659Z,113.37
2019-03-28T20:38:16.758Z,90.37
2019-03-28T20:40:50.774Z,86.13
2019-03-28T20:43:25.117Z,87.40
2019-03-28T20:45:58.503Z,72.30
2019-03-28T20:48:31.152Z,68.20
2019-03-28T20:51:03.883Z,65.57
2019-03-28T20:53:37.216Z,66.03
2019-03-28T20:56:10.969Z,64.13
2019-03-28T20:58:43.838Z,60.03
2019-03-28T21:01:16.704Z,67.13
2019-03-28T21:03:49.813Z,61.23
2019-03-28T21:06:23.314Z,59.03
2019-03-28T21:08:55.936Z,64.33
2019-03-28T21:11:29.626Z,67.17
2019-03-28T21:14:02.633Z,62.33
2019-03-28T21:16:36.342Z,63.97
2019-03-28T21:19:09.384Z,64.80
2019-03-28T21:21:44.572Z,70.60
2019-03-28T21:24:16.674Z,66.07
2019-03-28T21:26:49.607Z,70.23
2019-03-28T21:29:22.273Z,69.57
2019-03-28T21:31:55.545Z,70.53
2019-03-28T21:34:28.268Z,72.63
2019-03-28T21:37:01.309Z,72.03
2019-03-28T21:39:39.962Z,76.37
2019-03-28T21:42:12.364Z,71.90
2019-03-28T21:44:45.086Z,74.23
2019-03-28T21:47:18.589Z,68.87
2019-03-28T21:49:51.761Z,73.80
2019-03-28T21:52:24.559Z,71.77
2019-03-28T21:54:57.212Z,70.53
2019-03-28T21:57:31.855Z,70.20
2019-03-28T22:00:08.450Z,70.60
2019-03-28T22:02:44.078Z,64.97
2019-03-28T22:05:16.747Z,64.70
2019-03-28T22:07:49.681Z,62.70
2019-03-28T22:10:22.450Z,79.47
2019-03-28T22:12:55.897Z,72.43
2019-03-28T22:15:28.993Z,73.67
2019-03-28T22:18:02.319Z,72.40
2019-03-28T22:20:35.020Z,65.47
2019-03-28T22:23:09.035Z,66.87
2019-03-28T22:25:41.654Z,63.30
2019-03-28T22:28:14.396Z,71.00
2019-03-28T22:30:47.107Z,68.93
2019-03-28T22:33:19.925Z,64.27
2019-03-28T22:35:52.521Z,65.40
2019-03-28T22:38:25.191Z,63.13
2019-03-28T22:40:57.742Z,64.20
2019-03-28T22:43:30.769Z,61.20
2019-03-28T22:46:03.358Z,67.77
2019-03-28T22:48:36.318Z,67.40
2019-03-28T22:51:09.255Z,64.73
2019-03-28T22:53:42.221Z,65.93
2019-03-28T22:56:14.848Z,67.07
2019-03-28T22:58:47.523Z,57.93
2019-03-28T23:01:20.303Z,58.57
2019-03-28T23:03:55.065Z,56.40
2019-03-28T23:06:27.703Z,57.67
2019-03-28T23:09:00.527Z,56.50
2019-03-28T23:11:34.911Z,63.53
2019-03-28T23:14:08.376Z,61.80
2019-03-28T23:16:40.950Z,54.87
2019-03-28T23:19:13.608Z,58.33
2019-03-28T23:21:46.186Z,55.87
2019-03-28T23:24:18.853Z,66.33
2019-03-28T23:26:51.641Z,58.07
2019-03-28T23:29:24.673Z,59.50
2019-03-28T23:31:57.357Z,56.53
2019-03-28T23:34:30.633Z,55.30
2019-03-28T23:37:03.266Z,59.47
2019-03-28T23:39:36.280Z,59.33
2019-03-28T23:42:08.924Z,57.77
2019-03-28T23:44:41.638Z,59.70
2019-03-28T23:47:14.673Z,56.67
2019-03-28T23:49:48.042Z,59.17
2019-03-28T23:52:22.235Z,56.33
2019-03-28T23:54:55.132Z,60.83
2019-03-28T23:57:28.815Z,56.80
